Time;durP1;ratioP1;P1;durP2;ratioP2;P2;SDS_P1;SDS_P2;PMS_P1;PMS_P2;Temp;Humidity;BMP_temperature;BMP_pressure;BME280_temperature;BME280_humidity;BME280_pressure;Samples;Min_cycle;Max_cycle;Signal;HPM_P1;HPM_P2
2022/08/23 00:01:30;;;;;;;9.60;5.50;;;;;;;18.70;73.06;101236.72;4786899;30;20061;-60
2022/08/23 00:04:00;;;;;;;9.15;5.75;;;;;;;18.72;72.86;101240.16;4786721;30;20043;-59
2022/08/23 00:06:28;;;;;;;9.82;5.60;;;;;;;18.68;73.18;101235.91;4786894;30;20086;-62
2022/08/23 00:08:54;;;;;;;10.57;5.82;;;;;;;18.70;72.65;101236.72;4786802;30;20450;-59
2022/08/23 00:11:29;;;;;;;8.15;5.80;;;;;;;18.61;72.82;101237.06;4786813;30;20081;-59
2022/08/23 00:13:56;;;;;;;11.23;6.15;;;;;;;18.48;73.13;101230.50;4786754;30;20063;-62
2022/08/23 00:16:21;;;;;;;12.07;6.45;;;;;;;18.32;73.68;101230.25;4786189;29;20513;-61
2022/08/23 00:18:47;;;;;;;12.25;6.35;;;;;;;18.27;74.58;101229.56;4786669;30;20138;-59
2022/08/23 00:21:12;;;;;;;8.73;6.50;;;;;;;18.16;75.41;101224.69;4786793;30;20067;-62
2022/08/23 00:23:38;;;;;;;9.30;6.97;;;;;;;18.25;75.11;101231.41;4786602;30;20043;-61
2022/08/23 00:26:04;;;;;;;12.38;7.03;;;;;;;18.27;74.82;101227.78;4786813;30;20100;-61
2022/08/23 00:28:30;;;;;;;10.88;6.65;;;;;;;18.21;74.95;101232.44;4786681;30;20060;-61
2022/08/23 00:30:56;;;;;;;10.63;7.00;;;;;;;18.17;75.57;101220.28;4786527;30;20039;-59
2022/08/23 00:33:22;;;;;;;13.55;6.78;;;;;;;18.24;75.69;101232.34;4786658;30;20047;-59
2022/08/23 00:35:47;;;;;;;12.93;7.03;;;;;;;18.25;74.77;101234.94;4786572;30;20039;-60
2022/08/23 00:38:13;;;;;;;11.07;6.68;;;;;;;18.12;75.07;101212.50;4786450;30;20043;-62
2022/08/23 00:40:38;;;;;;;12.40;7.38;;;;;;;18.12;75.49;101223.09;4786437;30;20039;-62
2022/08/23 00:48:54;;;;;;;10.45;6.93;;;;;;;18.08;76.57;101238.22;4786356;30;20062;-60
2022/08/23 00:51:50;;;;;;;10.98;6.43;;;;;;;18.11;75.48;101226.66;4786432;30;20043;-63
2022/08/23 00:54:17;;;;;;;11.32;6.45;;;;;;;18.16;75.77;101224.69;4786406;30;20075;-59
2022/08/23 00:56:43;;;;;;;11.60;6.82;;;;;;;18.08;76.14;101227.63;4786292;30;20479;-61
2022/08/23 00:59:08;;;;;;;8.35;6.22;;;;;;;18.03;76.93;101236.66;4786350;30;20043;-58
2022/08/23 01:01:33;;;;;;;11.40;6.43;;;;;;;18.05;76.51;101235.69;4786332;30;20043;-59
2022/08/23 01:03:59;;;;;;;10.02;6.45;;;;;;;17.95;76.59;101226.38;4785893;30;20044;-63
2022/08/23 01:06:33;;;;;;;11.65;6.88;;;;;;;17.98;77.02;101241.28;4786383;30;20054;-61
2022/08/23 01:09:04;;;;;;;10.55;6.68;;;;;;;17.94;77.47;101229.94;4786335;30;20035;-61
2022/08/23 01:11:38;;;;;;;9.80;6.97;;;;;;;17.97;76.99;101240.44;4786223;30;20516;-60
2022/08/23 01:14:26;;;;;;;10.70;6.93;;;;;;;18.03;76.75;101244.59;4785816;30;20476;-60
2022/08/23 01:16:59;;;;;;;12.68;6.50;;;;;;;17.98;76.98;101225.41;4786283;30;20047;-59
2022/08/23 01:19:31;;;;;;;11.23;6.72;;;;;;;17.96;77.38;101237.84;4786110;30;20544;-60
2022/08/23 01:22:14;;;;;;;13.32;7.15;;;;;;;17.83;77.62;101220.69;4786299;30;20107;-61
2022/08/23 01:24:41;;;;;;;11.13;6.75;;;;;;;17.81;77.48;101236.63;4786210;30;20035;-60
2022/08/23 01:27:11;;;;;;;11.77;7.07;;;;;;;17.77;78.19;101236.78;4786597;29;20063;-59
2022/08/23 01:29:36;;;;;;;12.70;6.78;;;;;;;17.79;78.36;101235.81;4789519;30;20066;-62
2022/08/23 01:32:01;;;;;;;10.25;6.88;;;;;;;17.76;78.17;101240.34;4789604;30;20452;-61
2022/08/23 01:34:28;;;;;;;11.68;7.18;;;;;;;17.70;78.49;101231.72;4789568;30;20112;-60
2022/08/23 01:36:55;;;;;;;11.30;6.80;;;;;;;17.70;78.40;101237.00;4789241;30;20182;-61
2022/08/23 01:39:20;;;;;;;12.07;6.50;;;;;;;17.64;78.77;101241.69;4789348;30;20445;-61
2022/08/23 01:41:46;;;;;;;10.25;6.32;;;;;;;17.67;78.24;101245.06;4789192;30;20100;-59
2022/08/23 01:44:12;;;;;;;9.48;6.28;;;;;;;17.62;78.78;101246.13;4789178;30;20073;-61
2022/08/23 01:46:37;;;;;;;12.25;6.80;;;;;;;17.62;79.72;101254.94;4789264;30;20074;-61
2022/08/23 01:49:04;;;;;;;9.32;6.60;;;;;;;17.64;79.60;101250.47;4789244;30;20453;-60
2022/08/23 01:51:30;;;;;;;9.45;6.50;;;;;;;17.63;80.03;101250.50;4789287;30;20047;-62
2022/08/23 01:53:56;;;;;;;9.32;6.28;;;;;;;17.64;80.10;101247.84;4788915;30;20062;-60
2022/08/23 01:56:23;;;;;;;9.80;6.28;;;;;;;17.63;80.36;101246.06;4789066;30;20072;-61
2022/08/23 01:58:49;;;;;;;8.68;6.03;;;;;;;17.65;80.37;101244.28;4789052;30;20126;-62
2022/08/23 02:01:15;;;;;;;12.40;6.18;;;;;;;17.65;81.18;101241.63;4788938;30;20149;-59
2022/08/23 02:03:41;;;;;;;13.15;6.82;;;;;;;17.64;80.62;101239.03;4789091;30;20042;-61
2022/08/23 02:06:06;;;;;;;9.85;5.88;;;;;;;17.67;80.62;101246.84;4789050;30;20035;-60
2022/08/23 02:11:21;;;;;;;8.88;5.88;;;;;;;17.64;81.38;101244.31;4788737;30;20097;-60
2022/08/23 02:13:47;;;;;;;11.25;6.18;;;;;;;17.68;81.50;101249.44;4788778;30;20035;-62
2022/08/23 02:16:19;;;;;;;7.43;5.68;;;;;;;17.72;81.09;101250.19;4788806;30;20046;-61
2022/08/23 02:18:45;;;;;;;10.35;5.88;;;;;;;17.70;80.94;101237.00;4788715;30;20141;-63
2022/08/23 02:21:10;;;;;;;9.73;5.80;;;;;;;17.67;82.00;101249.47;4788795;30;21010;-62
2022/08/23 02:23:35;;;;;;;12.35;6.43;;;;;;;17.66;81.26;101240.66;4788675;30;20051;-61
2022/08/23 02:26:01;;;;;;;10.38;5.78;;;;;;;17.58;81.89;101229.47;4788432;30;20046;-62
2022/08/23 02:28:26;;;;;;;9.45;6.30;;;;;;;17.69;82.25;101240.56;4788718;30;20086;-61
2022/08/23 02:30:52;;;;;;;9.18;6.15;;;;;;;17.73;82.04;101242.19;4788633;30;20047;-62
2022/08/23 02:33:18;;;;;;;8.63;5.72;;;;;;;17.67;81.77;101233.59;4788644;30;20066;-61
2022/08/23 02:35:43;;;;;;;8.50;5.90;;;;;;;17.73;81.90;101239.53;4788496;30;20047;-61
2022/08/23 02:38:10;;;;;;;9.90;6.13;;;;;;;17.76;81.46;101241.22;4787977;29;20574;-61
2022/08/23 02:40:37;;;;;;;11.60;6.50;;;;;;;17.77;81.41;101242.09;4788073;30;20043;-60
2022/08/23 02:43:05;;;;;;;10.45;6.70;;;;;;;17.75;81.21;101234.19;4788250;30;20039;-59
2022/08/23 02:45:31;;;;;;;9.90;6.55;;;;;;;17.81;81.36;101235.75;4788302;30;20050;-60
2022/08/23 02:47:56;;;;;;;7.32;6.00;;;;;;;17.82;80.56;101248.09;4788197;30;20423;-59
2022/08/23 02:50:22;;;;;;;11.73;6.45;;;;;;;17.75;81.16;101239.50;4788003;30;20043;-59
2022/08/23 02:52:47;;;;;;;10.43;6.43;;;;;;;17.71;81.64;101241.38;4787773;30;20785;-59
2022/08/23 02:55:13;;;;;;;12.75;6.30;;;;;;;17.64;82.05;101242.53;4787883;30;20039;-60
2022/08/23 02:57:38;;;;;;;10.02;6.05;;;;;;;17.72;81.94;101248.41;4788196;30;20042;-60
2022/08/23 03:00:08;;;;;;;8.45;6.32;;;;;;;17.80;81.55;101257.88;4788065;30;20429;-60
2022/08/23 03:02:34;;;;;;;9.48;6.43;;;;;;;17.74;81.64;101249.22;4787823;30;20035;-60
2022/08/23 03:04:59;;;;;;;9.20;6.30;;;;;;;17.75;81.67;101255.38;4787826;30;20496;-61
2022/08/23 03:07:24;;;;;;;11.65;6.72;;;;;;;17.67;81.31;101254.78;4787917;30;20035;-61
2022/08/23 03:09:50;;;;;;;9.73;6.63;;;;;;;17.64;81.95;101257.56;4787862;30;20039;-63
2022/08/23 03:12:15;;;;;;;10.40;6.60;;;;;;;17.58;81.89;101253.31;4787909;30;20054;-63
2022/08/23 03:14:41;;;;;;;12.50;6.88;;;;;;;17.60;82.06;101255.91;4787855;30;20039;-60
2022/08/23 03:17:07;;;;;;;11.45;7.18;;;;;;;17.56;81.87;101244.56;4787854;30;20076;-59
2022/08/23 03:19:33;;;;;;;10.48;6.38;;;;;;;17.58;81.93;101255.94;4787860;30;20055;-61
2022/08/23 03:21:58;;;;;;;10.48;6.30;;;;;;;17.53;82.47;101255.25;4787676;30;20139;-59
2022/08/23 03:24:24;;;;;;;13.65;7.10;;;;;;;17.51;82.67;101265.00;4787414;30;20054;-60
2022/08/23 03:26:49;;;;;;;13.00;7.32;;;;;;;17.50;82.56;101259.78;4787354;30;20064;-63
2022/08/23 03:29:14;;;;;;;11.77;6.70;;;;;;;17.50;82.65;101265.94;4787674;30;20039;-61
2022/08/23 03:31:40;;;;;;;11.40;7.30;;;;;;;17.57;82.75;101269.22;4787622;30;20043;-61
2022/08/23 03:34:06;;;;;;;12.45;6.43;;;;;;;17.59;82.18;101264.75;4787577;30;20053;-59
2022/08/23 03:36:31;;;;;;;11.13;7.22;;;;;;;17.41;82.42;101255.69;4787732;30;20039;-61
2022/08/23 03:38:58;;;;;;;9.45;7.07;;;;;;;17.50;82.90;101271.22;4787486;30;20126;-61
2022/08/23 03:41:24;;;;;;;11.15;7.68;;;;;;;17.50;82.67;101259.78;4787280;30;20430;-60
2022/08/23 03:43:49;;;;;;;10.75;7.68;;;;;;;17.45;82.73;101265.25;4787189;30;20129;-61
2022/08/23 03:46:22;;;;;;;10.27;7.75;;;;;;;17.48;83.65;101270.44;4787055;30;20197;-60
2022/08/23 03:48:54;;;;;;;12.95;7.95;;;;;;;17.54;82.87;101264.03;4787271;30;20076;-61
2022/08/23 03:51:20;;;;;;;10.70;7.70;;;;;;;17.56;82.88;101273.66;4786491;30;20468;-58
2022/08/23 03:53:48;;;;;;;12.13;7.40;;;;;;;17.52;82.88;101264.09;4786889;30;20059;-60
2022/08/23 03:56:28;;;;;;;12.43;7.15;;;;;;;17.53;82.53;101268.47;4787304;30;20083;-60
2022/08/23 03:58:56;;;;;;;11.20;7.82;;;;;;;17.55;82.77;101266.63;4787015;30;20050;-59
2022/08/23 04:01:22;;;;;;;10.95;8.15;;;;;;;17.52;83.04;101268.53;4786854;30;20115;-62
2022/08/23 04:03:47;;;;;;;11.82;7.97;;;;;;;17.50;83.43;101275.66;4787152;30;20461;-60
2022/08/23 04:06:14;;;;;;;11.95;8.10;;;;;;;17.48;83.19;101278.38;4786990;30;20122;-60
2022/08/23 04:08:40;;;;;;;15.02;8.40;;;;;;;17.44;83.29;101278.53;4786994;30;20043;-59
2022/08/23 04:11:05;;;;;;;12.48;8.43;;;;;;;17.31;83.78;101268.38;4787018;30;20031;-61
2022/08/23 04:13:30;;;;;;;14.30;8.82;;;;;;;17.29;83.88;101283.44;4786771;30;20050;-59
2022/08/23 04:15:57;;;;;;;13.88;9.20;;;;;;;17.25;84.04;101287.09;4786770;30;20047;-60
2022/08/23 04:18:22;;;;;;;13.13;9.10;;;;;;;17.30;83.40;101285.16;4786862;30;20062;-60
2022/08/23 04:20:48;;;;;;;13.82;8.85;;;;;;;17.28;83.47;101286.13;4770842;30;20462;-61
2022/08/23 04:23:14;;;;;;;13.05;9.48;;;;;;;17.30;83.92;101285.16;4786729;30;20046;-61
2022/08/23 04:25:39;;;;;;;16.17;9.10;;;;;;;17.30;83.65;101286.94;4786742;30;20035;-59
2022/08/23 04:28:04;;;;;;;13.77;8.63;;;;;;;17.32;83.99;101282.44;4786712;30;20050;-61
2022/08/23 04:30:31;;;;;;;12.50;9.30;;;;;;;17.45;83.01;101286.41;4786635;30;20039;-58
2022/08/23 04:32:56;;;;;;;15.77;10.18;;;;;;;17.49;82.62;101297.75;4786539;30;20532;-58
2022/08/23 04:35:24;;;;;;;15.07;10.07;;;;;;;17.48;82.61;101301.31;4786524;30;20043;-60
2022/08/23 04:37:49;;;;;;;14.55;9.48;;;;;;;17.48;82.84;101301.31;4786591;30;20050;-59
2022/08/23 04:43:00;;;;;;;14.55;10.82;;;;;;;17.50;82.51;101302.97;4786470;30;20461;-60
2022/08/23 04:45:26;;;;;;;15.65;10.40;;;;;;;17.55;82.54;101298.41;4786603;30;20047;-59
2022/08/23 04:47:51;;;;;;;14.10;9.90;;;;;;;17.57;82.80;101299.22;4786471;30;20047;-62
2022/08/23 04:50:17;;;;;;;18.42;10.93;;;;;;;17.56;82.53;101294.84;4786405;30;20035;-60
2022/08/23 04:52:42;;;;;;;15.40;10.48;;;;;;;17.57;82.73;101301.84;4786395;30;20063;-59
2022/08/23 04:55:08;;;;;;;15.95;10.52;;;;;;;17.60;82.74;101312.34;4786425;30;20035;-61
2022/08/23 04:57:34;;;;;;;14.10;10.20;;;;;;;17.63;82.71;101311.38;4786542;30;20073;-60
2022/08/23 04:59:59;;;;;;;14.57;10.18;;;;;;;17.64;82.74;101310.50;4786294;30;20116;-61
2022/08/23 05:02:24;;;;;;;14.13;9.93;;;;;;;17.68;82.91;101314.72;4789025;29;20130;-61
2022/08/23 05:04:50;;;;;;;14.32;9.98;;;;;;;17.71;82.57;101309.34;4790191;30;20091;-58
2022/08/23 05:07:15;;;;;;;16.85;10.48;;;;;;;17.70;83.13;101308.47;4790004;30;20039;-60
2022/08/23 05:09:40;;;;;;;15.18;10.57;;;;;;;17.64;82.88;101289.31;4789787;30;20045;-60
2022/08/23 05:12:06;;;;;;;16.50;10.85;;;;;;;17.74;83.12;101318.03;4789918;30;20038;-61
2022/08/23 05:14:31;;;;;;;14.57;10.57;;;;;;;17.75;82.38;101308.31;4789798;30;20356;-62
2022/08/23 05:16:56;;;;;;;15.00;10.68;;;;;;;17.83;83.04;101318.66;4789765;30;20046;-61
2022/08/23 05:19:22;;;;;;;12.65;10.27;;;;;;;17.81;83.52;101313.41;4789737;30;20109;-61
2022/08/23 05:21:48;;;;;;;13.80;11.38;;;;;;;17.88;81.34;101308.72;4790039;30;20035;-63
2022/08/23 05:24:13;;;;;;;20.88;11.98;;;;;;;17.92;81.20;101311.22;4789809;30;20057;-64
2022/08/23 05:26:38;;;;;;;17.60;11.57;;;;;;;17.99;81.68;101322.47;4789138;30;20043;-60
2022/08/23 05:29:04;;;;;;;18.15;11.52;;;;;;;18.04;81.84;101312.56;4789327;30;20435;-60
2022/08/23 05:31:29;;;;;;;13.15;10.85;;;;;;;17.98;82.23;101310.16;4789512;30;20043;-60
2022/08/23 05:33:55;;;;;;;18.38;11.65;;;;;;;18.07;82.48;101325.69;4789481;30;20043;-60
2022/08/23 05:36:21;;;;;;;16.83;11.50;;;;;;;18.15;82.21;101320.97;4789430;30;20043;-60
2022/08/23 05:38:48;;;;;;;16.65;11.10;;;;;;;18.20;83.00;101316.34;4789499;30;20130;-60
2022/08/23 05:41:15;;;;;;;16.48;11.40;;;;;;;18.32;83.24;101333.59;4788828;30;20499;-60
2022/08/23 05:43:41;;;;;;;18.88;11.50;;;;;;;18.39;82.54;101337.72;4789195;30;20100;-58
2022/08/23 05:46:12;;;;;;;15.73;11.30;;;;;;;18.48;81.20;101344.47;4789312;30;20110;-58
2022/08/23 05:48:39;;;;;;;18.33;10.80;;;;;;;18.56;81.51;101345.03;4789421;30;20043;-59
2022/08/23 05:51:26;;;;;;;18.30;11.27;;;;;;;18.67;81.52;101351.69;4789182;30;20058;-58
2022/08/23 05:53:53;;;;;;;16.63;10.68;;;;;;;18.76;81.02;101353.13;4788880;30;20116;-59
2022/08/23 05:56:25;;;;;;;18.08;10.70;;;;;;;18.87;81.36;101355.38;4789039;30;20039;-58
2022/08/23 05:58:55;;;;;;;17.55;10.82;;;;;;;18.92;81.87;101358.69;4789000;30;20043;-58
2022/08/23 06:01:21;;;;;;;18.77;11.50;;;;;;;19.02;80.74;101360.91;4789163;30;20044;-59
2022/08/23 06:03:47;;;;;;;20.42;11.90;;;;;;;19.10;79.60;101357.94;4788940;30;20046;-59
2022/08/23 06:06:15;;;;;;;18.27;10.95;;;;;;;19.13;79.43;101358.69;4788563;30;20039;-60
2022/08/23 06:08:45;;;;;;;15.63;10.25;;;;;;;19.15;78.67;101360.41;4788862;30;20118;-61
2022/08/23 06:11:14;;;;;;;19.70;10.05;;;;;;;19.19;78.94;101362.03;4788844;30;20081;-59
2022/08/23 06:13:52;;;;;;;19.00;9.70;;;;;;;19.20;78.93;101361.97;4788166;29;20043;-59
2022/08/23 06:16:21;;;;;;;18.35;9.80;;;;;;;19.19;78.68;101356.72;4786146;30;20049;-60
2022/08/23 06:18:47;;;;;;;18.73;9.75;;;;;;;19.23;78.33;101356.50;4788756;30;20046;-59
2022/08/23 06:21:14;;;;;;;23.63;10.73;;;;;;;19.23;78.50;101367.13;4788174;30;20035;-60
2022/08/23 06:23:40;;;;;;;20.33;10.82;;;;;;;19.23;79.15;101364.47;4788318;30;20043;-59
2022/08/23 06:26:15;;;;;;;16.15;10.77;;;;;;;19.23;78.81;101368.91;4788539;30;20058;-59
2022/08/23 06:28:42;;;;;;;17.95;10.95;;;;;;;19.24;79.08;101362.69;4788045;30;20043;-58
2022/08/23 06:31:08;;;;;;;19.40;10.07;;;;;;;19.28;79.23;101366.94;4788599;30;20039;-59
2022/08/23 06:33:34;;;;;;;19.52;11.32;;;;;;;19.26;79.49;101360.84;4788334;30;20130;-58
2022/08/23 06:36:03;;;;;;;19.20;11.05;;;;;;;19.26;79.90;101366.13;4784483;30;20142;-59
2022/08/23 06:38:29;;;;;;;17.38;10.15;;;;;;;19.23;80.21;101366.25;4788441;30;20053;-58
2022/08/23 06:41:06;;;;;;;18.45;11.52;;;;;;;19.19;80.54;101364.69;4788359;30;20138;-58
2022/08/23 06:43:32;;;;;;;21.30;10.73;;;;;;;19.20;80.28;101371.72;4788408;30;20518;-58
2022/08/23 06:46:27;;;;;;;17.42;10.68;;;;;;;19.30;79.62;101370.41;4788312;30;20109;-58
2022/08/23 06:48:53;;;;;;;20.80;10.90;;;;;;;19.34;79.91;101374.66;4773075;30;20051;-58
2022/08/23 06:51:22;;;;;;;19.30;11.55;;;;;;;19.35;79.42;101368.44;4788124;30;20361;-58
2022/08/23 06:53:47;;;;;;;18.17;12.23;;;;;;;19.33;79.06;101363.19;4786818;30;20059;-58
2022/08/23 06:56:13;;;;;;;20.75;11.25;;;;;;;19.35;79.10;101356.03;4770240;30;20377;-58
2022/08/23 06:58:38;;;;;;;20.42;12.68;;;;;;;19.44;77.88;101354.75;4769880;30;20089;-58
2022/08/23 07:01:12;;;;;;;20.58;12.20;;;;;;;19.54;77.57;101369.44;4769807;30;20044;-57
2022/08/23 07:03:37;;;;;;;23.00;11.98;;;;;;;19.60;77.91;101362.97;4770324;30;20051;-51
2022/08/23 07:06:03;;;;;;;20.17;12.10;;;;;;;19.66;77.96;101360.94;4770316;30;20043;-51
2022/08/23 07:08:28;;;;;;;21.35;13.45;;;;;;;19.65;76.56;101345.06;4772894;30;20116;-50
2022/08/23 07:10:55;;;;;;;25.25;13.98;;;;;;;19.76;75.59;101364.03;4772895;30;20119;-51
2022/08/23 07:13:21;;;;;;;24.42;14.02;;;;;;;19.80;73.38;101363.84;4772742;30;20445;-50
2022/08/23 07:15:46;;;;;;;21.58;14.27;;;;;;;19.83;73.27;101364.66;4772758;30;20044;-60
2022/08/23 07:18:12;;;;;;;19.63;13.43;;;;;;;19.90;73.99;101374.09;4772901;30;20142;-59
2022/08/23 07:20:37;;;;;;;21.90;13.32;;;;;;;19.92;73.14;101362.44;4773198;30;20042;-59
2022/08/23 07:23:02;;;;;;;19.05;13.38;;;;;;;19.95;72.73;101372.06;4772348;30;20031;-59
2022/08/23 07:25:28;;;;;;;21.85;14.82;;;;;;;20.06;73.00;101378.66;4768656;30;20040;-58
2022/08/23 07:27:53;;;;;;;24.80;14.33;;;;;;;20.07;72.88;101374.22;4769466;30;20094;-58
2022/08/23 07:30:18;;;;;;;22.10;13.63;;;;;;;20.10;73.09;101369.59;4775885;30;20281;-59
2022/08/23 07:32:44;;;;;;;19.33;13.32;;;;;;;20.16;73.32;101379.09;4786245;30;20481;-58
2022/08/23 07:35:09;;;;;;;17.52;13.32;;;;;;;20.22;73.37;101383.28;4785812;30;20039;-59
2022/08/23 07:37:34;;;;;;;20.35;13.18;;;;;;;20.33;73.40;101378.34;4787278;30;20050;-58
2022/08/23 07:39:59;;;;;;;22.52;13.45;;;;;;;20.42;73.59;101381.50;4787342;30;20192;-59
2022/08/23 07:42:25;;;;;;;18.80;13.48;;;;;;;20.46;71.99;101382.19;4787335;30;20043;-58
2022/08/23 07:44:52;;;;;;;18.00;12.63;;;;;;;20.60;70.69;101389.56;4787272;30;20035;-59
2022/08/23 07:47:18;;;;;;;15.82;12.18;;;;;;;20.65;69.22;101395.50;4785797;30;20765;-59
2022/08/23 07:49:43;;;;;;;21.52;12.15;;;;;;;20.69;70.37;101389.13;4786027;30;20069;-59
2022/08/23 07:52:08;;;;;;;18.10;12.13;;;;;;;20.80;69.62;101392.13;4779013;30;20051;-59
2022/08/23 07:54:33;;;;;;;16.03;12.90;;;;;;;20.84;69.76;101399.03;4776453;30;20090;-60
2022/08/23 07:56:59;;;;;;;17.00;13.15;;;;;;;20.91;69.39;101399.63;4775610;30;20876;-59
2022/08/23 07:59:24;;;;;;;17.77;12.07;;;;;;;20.93;69.80;101395.97;4767737;30;20654;-52
2022/08/23 08:01:49;;;;;;;17.00;12.50;;;;;;;20.99;68.81;101400.09;4768026;30;20043;-54
2022/08/23 08:04:15;;;;;;;18.25;12.98;;;;;;;21.07;69.04;101403.28;4767729;30;20042;-50
2022/08/23 08:06:46;;;;;;;19.20;13.43;;;;;;;21.17;67.66;101408.06;4767725;30;20048;-50
2022/08/23 08:09:14;;;;;;;18.58;13.38;;;;;;;21.27;67.96;101410.34;4767849;30;20559;-50
2022/08/23 08:11:41;;;;;;;21.00;12.13;;;;;;;21.34;68.59;101407.28;4768805;30;20043;-52
2022/08/23 08:14:09;;;;;;;18.90;12.50;;;;;;;21.44;68.00;101402.38;4768815;30;20478;-52
2022/08/23 08:16:38;;;;;;;18.10;12.82;;;;;;;21.55;67.34;101413.34;4768845;30;20035;-52
2022/08/23 08:19:08;;;;;;;18.58;12.32;;;;;;;21.67;65.83;101412.72;4768788;30;20527;-52
2022/08/23 08:21:34;;;;;;;18.73;11.35;;;;;;;21.86;65.99;101412.66;4768833;30;20357;-52
2022/08/23 08:24:00;;;;;;;20.27;12.77;;;;;;;21.94;66.01;101423.78;4769388;30;20491;-51
2022/08/23 08:26:26;;;;;;;18.42;10.88;;;;;;;22.08;66.45;101412.44;4786413;30;20051;-51
2022/08/23 08:28:55;;;;;;;19.40;11.02;;;;;;;22.18;65.02;101419.88;4773817;30;20043;-52
2022/08/23 08:31:21;;;;;;;20.67;11.45;;;;;;;22.28;65.20;101406.94;4768762;30;20454;-58
2022/08/23 08:33:46;;;;;;;18.25;10.68;;;;;;;22.36;65.55;101409.16;4768810;30;20040;-59
2022/08/23 08:36:39;;;;;;;17.73;10.82;;;;;;;22.44;65.05;101410.50;4768516;30;20489;-59
2022/08/23 08:39:07;;;;;;;17.80;10.48;;;;;;;22.52;63.61;101408.25;4768678;30;20104;-59
2022/08/23 08:41:54;;;;;;;20.15;11.27;;;;;;;22.65;63.89;101410.28;4768631;30;20047;-59
2022/08/23 08:44:40;;;;;;;19.70;10.43;;;;;;;22.73;63.96;101413.38;4768558;30;20054;-59
2022/08/23 08:47:20;;;;;;;17.65;9.95;;;;;;;22.78;63.45;101411.34;4768482;30;20413;-59
2022/08/23 08:50:01;;;;;;;13.85;9.60;;;;;;;22.96;63.51;101417.47;4768566;30;20040;-61
2022/08/23 08:52:31;;;;;;;17.58;9.55;;;;;;;23.03;62.69;101422.38;4768423;30;20064;-59
2022/08/23 08:55:21;;;;;;;14.27;8.95;;;;;;;23.04;63.46;101421.44;4768464;30;20495;-60
2022/08/23 08:57:48;;;;;;;14.32;9.48;;;;;;;23.15;61.97;101420.84;4768630;30;20142;-59
2022/08/23 09:00:29;;;;;;;16.88;8.70;;;;;;;23.44;61.66;101427.19;4768241;30;20511;-59
2022/08/23 09:02:57;;;;;;;;;;;;;;;23.83;63.31;101432.91;4768454;30;20051;-59
2022/08/23 09:05:26;;;;;;;12.38;6.95;;;;;;;24.17;57.70;101428.22;4768487;30;20039;-59
2022/08/23 09:08:16;;;;;;;14.13;6.10;;;;;;;24.85;57.17;101426.63;4768458;30;20039;-60
2022/08/23 09:11:04;;;;;;;16.13;7.40;;;;;;;25.08;54.60;101425.19;4768262;30;20492;-59
2022/08/23 09:13:45;;;;;;;15.30;6.55;;;;;;;25.33;55.84;101429.78;4768509;30;20086;-59
2022/08/23 09:16:19;;;;;;;9.98;5.72;;;;;;;25.37;54.63;101430.44;4768405;30;20090;-59
2022/08/23 09:18:45;;;;;;;12.32;5.60;;;;;;;25.26;53.90;101425.81;4768231;30;20039;-60
2022/08/23 09:21:13;;;;;;;9.65;5.10;;;;;;;25.21;53.22;101426.09;4768175;30;20054;-59
2022/08/23 09:23:44;;;;;;;11.50;5.50;;;;;;;25.18;54.05;101430.78;4768310;30;20089;-60
2022/08/23 09:26:23;;;;;;;9.50;4.38;;;;;;;25.27;55.37;101424.84;4767963;30;20129;-57
2022/08/23 09:28:58;;;;;;;11.05;6.07;;;;;;;25.19;53.73;101433.38;4768176;30;20036;-57
2022/08/23 09:31:36;;;;;;;13.10;5.90;;;;;;;25.10;54.92;101406.34;4768258;30;20032;-58
2022/08/23 09:34:01;;;;;;;11.05;4.55;;;;;;;25.32;55.00;101428.91;4767789;30;20450;-58
2022/08/23 09:36:35;;;;;;;10.77;3.78;;;;;;;25.51;53.26;101435.75;4768477;30;20047;-59
2022/08/23 09:39:05;;;;;;;7.28;3.33;;;;;;;25.72;52.73;101437.03;4768169;30;20051;-57
2022/08/23 09:41:42;;;;;;;9.10;3.28;;;;;;;25.82;52.57;101439.94;4767913;30;20041;-58
2022/08/23 09:44:12;;;;;;;8.27;3.40;;;;;;;25.83;51.36;101434.47;4767645;30;20489;-59
2022/08/23 09:46:40;;;;;;;8.70;3.72;;;;;;;25.90;51.37;101427.75;4768077;30;20051;-59
2022/08/23 09:49:23;;;;;;;9.15;3.33;;;;;;;25.89;51.45;101434.06;4770203;30;20039;-58
2022/08/23 09:51:50;;;;;;;10.30;3.40;;;;;;;26.05;50.55;101433.88;4771360;30;20047;-61
2022/08/23 09:54:23;;;;;;;5.32;2.08;;;;;;;26.12;48.30;101429.81;4771056;30;20062;-59
2022/08/23 09:56:53;;;;;;;6.30;2.45;;;;;;;26.26;48.42;101428.84;4771092;30;20067;-58
2022/08/23 09:59:21;;;;;;;7.60;2.78;;;;;;;26.40;48.94;101426.09;4771262;30;20039;-59
2022/08/23 10:01:48;;;;;;;7.55;2.70;;;;;;;26.73;48.72;101411.22;4771229;30;20744;-58
2022/08/23 10:04:23;;;;;;;8.65;3.10;;;;;;;26.69;47.93;101416.81;4770951;30;20032;-58
2022/08/23 10:06:49;;;;;;;7.22;2.95;;;;;;;26.74;46.87;101411.13;4770817;30;20039;-58
2022/08/23 10:09:31;;;;;;;8.48;2.20;;;;;;;26.82;47.53;101408.75;4771110;30;20048;-59
2022/08/23 10:11:59;;;;;;;7.88;2.50;;;;;;;26.93;45.95;101405.28;4770980;30;20040;-57
2022/08/23 10:14:26;;;;;;;8.73;2.80;;;;;;;26.99;46.31;101410.25;4770407;30;20465;-58
2022/08/23 10:17:07;;;;;;;8.73;2.53;;;;;;;27.06;47.25;101407.94;4770180;30;20461;-58
2022/08/23 10:19:46;;;;;;;8.10;3.10;;;;;;;27.22;47.17;101408.53;4770417;30;20046;-58
2022/08/23 10:22:19;;;;;;;8.10;3.05;;;;;;;27.45;46.78;101404.13;4770401;30;20039;-58
2022/08/23 10:24:51;;;;;;;8.10;2.85;;;;;;;27.59;46.89;101412.03;4772773;30;20035;-58
2022/08/23 10:30:35;;;;;;;7.38;2.90;;;;;;;27.55;44.98;101407.81;4770542;30;20377;-60
2022/08/23 10:33:03;;;;;;;7.05;2.80;;;;;;;27.63;44.64;101411.69;4770544;30;20378;-60
2022/08/23 10:35:37;;;;;;;8.43;3.30;;;;;;;27.77;44.68;101407.09;4770208;30;20432;-58
2022/08/23 10:38:21;;;;;;;6.65;2.42;;;;;;;27.96;44.92;101405.56;4770401;30;20434;-57
2022/08/23 10:40:46;;;;;;;5.50;2.63;;;;;;;28.15;43.56;101404.13;4770470;30;20039;-60
2022/08/23 10:43:14;;;;;;;6.63;2.17;;;;;;;28.24;43.31;101403.41;4770209;30;20448;-60
2022/08/23 10:45:42;;;;;;;5.28;2.40;;;;;;;28.34;43.39;101407.13;4770233;30;20350;-57
2022/08/23 10:48:16;;;;;;;7.47;2.67;;;;;;;28.53;44.57;101398.44;4769970;30;20434;-61
2022/08/23 10:50:48;;;;;;;6.65;2.25;;;;;;;28.62;43.36;101393.16;4770248;30;20036;-60
2022/08/23 10:53:16;;;;;;;5.18;1.67;;;;;;;28.67;40.85;101395.50;4769978;30;20499;-61
2022/08/23 10:56:01;;;;;;;4.63;1.90;;;;;;;28.68;41.89;101389.13;4770335;30;20075;-61
2022/08/23 10:58:40;;;;;;;5.40;1.75;;;;;;;28.68;41.23;101381.91;4770010;30;20043;-61
2022/08/23 11:01:08;;;;;;;4.82;1.98;;;;;;;28.68;39.86;101389.97;4770086;30;20351;-61
2022/08/23 11:03:50;;;;;;;5.82;2.20;;;;;;;28.63;41.80;101389.50;4769859;30;20046;-60
2022/08/23 11:06:34;;;;;;;6.30;2.10;;;;;;;28.67;41.47;101399.03;4770197;30;20100;-62
2022/08/23 11:09:04;;;;;;;7.55;2.55;;;;;;;28.58;41.24;101394.38;4770017;30;20102;-60
2022/08/23 11:11:45;;;;;;;4.77;1.90;;;;;;;28.63;41.04;101392.19;4769872;30;20056;-64
2022/08/23 11:14:45;;;;;;;4.82;2.00;;;;;;;28.71;41.53;101389.75;4769794;30;20043;-59
2022/08/23 11:17:27;;;;;;;8.07;2.25;;;;;;;28.37;42.67;101390.72;4769758;30;20040;-63
2022/08/23 11:20:03;;;;;;;5.70;2.20;;;;;;;28.15;42.72;101394.22;4769722;30;20075;-60
2022/08/23 11:22:31;;;;;;;6.47;2.20;;;;;;;28.27;41.56;101387.88;4769706;30;20051;-60
2022/08/23 11:24:58;;;;;;;7.10;1.92;;;;;;;28.24;41.55;101389.97;4769764;30;20047;-62
2022/08/23 11:27:27;;;;;;;7.10;2.20;;;;;;;28.43;41.63;101384.84;4769445;30;20395;-59
2022/08/23 11:29:52;;;;;;;4.90;2.15;;;;;;;28.38;41.92;101387.06;4769441;30;20457;-59
2022/08/23 11:32:25;;;;;;;5.30;2.20;;;;;;;28.54;42.03;101387.53;4769459;30;20055;-59
2022/08/23 11:35:03;;;;;;;8.13;2.47;;;;;;;28.77;42.53;101388.38;4769509;30;20425;-60
2022/08/23 11:37:48;;;;;;;5.07;2.10;;;;;;;28.76;41.39;101387.50;4769605;30;20039;-58
2022/08/23 11:40:14;;;;;;;8.40;2.28;;;;;;;28.86;41.08;101386.81;4769430;30;20560;-60